Time;durP1;ratioP1;P1;durP2;ratioP2;P2;SDS_P1;SDS_P2;PMS_P1;PMS_P2;Temp;Humidity;BMP_temperature;BMP_pressure;BME280_temperature;BME280_humidity;BME280_pressure;Samples;Min_cycle;Max_cycle;Signal;HPM_P1;HPM_P2
2022/11/13 00:00:35;;;;;;;421.92;377.88;;;;;;;5.22;100.00;99634.31;7382036;19;20007;-53
2022/11/13 00:03:28;;;;;;;438.20;393.88;;;;;;;5.20;100.00;99636.09;7385357;19;20021;-55
2022/11/13 00:06:26;;;;;;;431.27;387.70;;;;;;;5.25;100.00;99629.06;7389773;19;20047;-49
2022/11/13 00:09:18;;;;;;;441.95;397.25;;;;;;;5.22;100.00;99633.47;7382654;19;20056;-50
2022/11/13 00:12:11;;;;;;;428.05;385.17;;;;;;;5.14;100.00;99625.75;7386262;19;20018;-52
2022/11/13 00:15:03;;;;;;;429.85;386.83;;;;;;;5.15;100.00;99627.47;7388456;19;20469;-54
2022/11/13 00:17:55;;;;;;;433.80;389.50;;;;;;;5.11;100.00;99615.38;7387966;19;20014;-53
2022/11/13 00:20:48;;;;;;;423.77;380.08;;;;;;;5.18;100.00;99622.22;7386340;19;20369;-54
2022/11/13 00:23:43;;;;;;;430.92;387.30;;;;;;;5.18;100.00;99619.59;7386907;19;20007;-51
2022/11/13 00:26:38;;;;;;;419.00;376.23;;;;;;;5.15;100.00;99622.25;7390796;19;20010;-55
2022/11/13 00:29:30;;;;;;;429.42;384.92;;;;;;;5.16;100.00;99616.19;7383403;19;20338;-51
2022/11/13 00:32:22;;;;;;;415.05;372.60;;;;;;;5.14;100.00;99615.34;7388567;19;20014;-55
2022/11/13 00:35:14;;;;;;;413.58;371.42;;;;;;;5.11;100.00;99611.94;7390189;19;20014;-53
2022/11/13 00:38:06;;;;;;;447.73;402.65;;;;;;;5.12;100.00;99606.69;7384597;19;20023;-51
2022/11/13 00:41:01;;;;;;;440.38;396.55;;;;;;;5.13;100.00;99611.00;7390530;19;20010;-53
2022/11/13 00:43:56;;;;;;;436.13;392.42;;;;;;;5.12;100.00;99616.25;7387151;19;20342;-53
2022/11/13 00:46:49;;;;;;;441.85;397.63;;;;;;;5.07;100.00;99610.25;7387150;19;20022;-51
2022/11/13 00:49:43;;;;;;;438.05;394.02;;;;;;;5.02;100.00;99615.53;7385991;19;20011;-61
2022/11/13 00:52:35;;;;;;;431.65;388.00;;;;;;;5.03;100.00;99612.03;7388679;19;20015;-52
2022/11/13 00:55:28;;;;;;;432.88;389.20;;;;;;;5.23;100.00;99614.31;7388725;19;20457;-53
2022/11/13 00:58:23;;;;;;;441.75;396.67;;;;;;;5.05;100.00;99611.13;7384423;19;20023;-52
2022/11/13 01:01:17;;;;;;;428.38;384.83;;;;;;;5.16;100.00;99608.34;7388708;19;20014;-53
2022/11/13 01:04:10;;;;;;;;;;;;;;;5.15;100.00;99604.00;7387753;19;20014;-54
2022/11/13 01:07:02;;;;;;;432.40;388.27;;;;;;;5.08;100.00;99607.59;7384164;19;19919;-53
2022/11/13 01:09:56;;;;;;;420.75;377.55;;;;;;;5.15;100.00;99609.22;7388118;19;20048;-54
2022/11/13 01:12:48;;;;;;;420.35;377.38;;;;;;;5.16;100.00;99607.50;7389292;19;20014;-53
2022/11/13 01:15:44;;;;;;;427.50;383.08;;;;;;;5.11;100.00;99602.34;7387595;19;20528;-51
2022/11/13 01:18:37;;;;;;;432.15;389.25;;;;;;;5.01;100.00;99604.22;7383916;19;20011;-61
2022/11/13 01:21:33;;;;;;;424.00;381.80;;;;;;;5.04;100.00;99603.31;7386914;19;20010;-52
2022/11/13 01:24:24;;;;;;;426.63;384.70;;;;;;;4.93;100.00;99605.22;7389089;19;20014;-53
2022/11/13 01:27:16;;;;;;;444.00;399.67;;;;;;;4.93;100.00;99602.63;7383271;19;20014;-56
2022/11/13 01:30:09;;;;;;;443.77;400.15;;;;;;;4.89;100.00;99603.56;7387666;19;20014;-51
2022/11/13 01:33:04;;;;;;;442.42;398.83;;;;;;;5.03;100.00;99601.59;7389396;19;20046;-50
2022/11/13 01:35:56;;;;;;;443.13;398.17;;;;;;;4.94;100.00;99596.56;7383183;19;20006;-53
2022/11/13 01:38:49;;;;;;;430.67;387.05;;;;;;;5.02;100.00;99598.13;7387414;19;20007;-51
2022/11/13 01:41:44;;;;;;;430.27;386.10;;;;;;;5.09;100.00;99596.31;7385819;19;20017;-53
2022/11/13 01:44:54;;;;;;;425.90;381.88;;;;;;;5.00;100.00;99586.00;7386518;19;20015;-53
2022/11/13 01:47:46;;;;;;;441.05;396.45;;;;;;;4.91;100.00;99580.97;7388460;19;20677;-53
2022/11/13 01:50:41;;;;;;;429.83;386.02;;;;;;;4.97;100.00;99580.84;7385584;19;20015;-55
2022/11/13 01:53:35;;;;;;;424.85;381.70;;;;;;;5.09;100.00;99565.84;7386945;19;20019;-53
2022/11/13 01:56:29;;;;;;;;;;;;;;;4.93;100.00;99568.75;7388806;19;20103;-52
2022/11/13 01:59:26;;;;;;;447.83;401.83;;;;;;;4.85;100.00;99574.09;7382006;19;19914;-53
2022/11/13 02:02:19;;;;;;;432.17;388.20;;;;;;;4.96;100.00;99571.31;7386954;19;20044;-59
2022/11/13 02:05:14;;;;;;;424.33;381.00;;;;;;;4.80;100.00;99562.84;7387435;19;20037;-51
2022/11/13 02:08:10;;;;;;;427.15;384.23;;;;;;;4.88;100.00;99563.63;7387714;19;20941;-53
2022/11/13 02:11:02;;;;;;;467.45;419.73;;;;;;;4.90;100.00;99563.59;7381927;19;20014;-58
2022/11/13 02:13:54;;;;;;;431.75;388.63;;;;;;;4.86;100.00;99559.28;7387607;19;20010;-51
2022/11/13 02:16:53;;;;;;;434.98;391.23;;;;;;;4.85;100.00;99560.19;7387700;19;20082;-52
2022/11/13 02:19:51;;;;;;;459.55;414.23;;;;;;;4.80;100.00;99556.81;7383370;19;20036;-51
2022/11/13 02:22:50;;;;;;;430.42;387.02;;;;;;;4.98;100.00;99557.34;7382585;19;20356;-59
2022/11/13 02:25:48;;;;;;;436.67;393.83;;;;;;;4.95;100.00;99549.59;7386732;19;20040;-53
2022/11/13 02:28:41;;;;;;;432.77;389.80;;;;;;;4.90;100.00;99553.19;7387240;19;20015;-50
2022/11/13 02:31:32;;;;;;;437.05;392.23;;;;;;;4.97;100.00;99536.50;7382318;19;20445;-53
2022/11/13 02:34:25;;;;;;;421.67;378.58;;;;;;;4.84;100.00;99546.31;7386833;19;20010;-51
2022/11/13 02:37:20;;;;;;;426.45;383.77;;;;;;;4.94;100.00;99545.25;7387190;19;20010;-54
2022/11/13 02:40:16;;;;;;;424.65;381.73;;;;;;;4.82;100.00;99542.84;7388399;19;20081;-49
2022/11/13 02:43:10;;;;;;;430.83;386.98;;;;;;;4.77;100.00;99547.28;7382455;19;20387;-50
2022/11/13 02:46:02;;;;;;;420.83;378.00;;;;;;;4.73;100.00;99550.84;7389026;19;20320;-51
2022/11/13 02:48:54;;;;;;;421.40;378.63;;;;;;;4.84;100.00;99548.06;7392014;19;20019;-51
2022/11/13 02:51:46;;;;;;;440.25;396.27;;;;;;;4.83;100.00;99538.53;7388602;19;20011;-54
2022/11/13 02:54:38;;;;;;;426.60;383.75;;;;;;;5.03;100.00;99539.91;7391965;19;20018;-50
2022/11/13 02:57:30;;;;;;;423.80;381.13;;;;;;;5.01;100.00;99546.03;7394596;19;20014;-51
2022/11/13 03:00:29;;;;;;;441.30;397.30;;;;;;;4.89;100.00;99546.22;7391404;19;20546;-52
2022/11/13 03:03:22;;;;;;;425.73;382.45;;;;;;;4.82;100.00;99545.47;7380398;19;20015;-60
2022/11/13 03:06:14;;;;;;;415.27;372.83;;;;;;;4.83;100.00;99536.75;7387375;19;20059;-54
2022/11/13 03:09:09;;;;;;;420.88;378.15;;;;;;;4.83;100.00;99534.16;7387847;19;20011;-51
2022/11/13 03:12:01;;;;;;;418.02;374.70;;;;;;;4.87;100.00;99535.81;7383959;19;20010;-52
2022/11/13 03:14:55;;;;;;;402.08;361.15;;;;;;;4.82;100.00;99524.63;7390163;19;20010;-51
2022/11/13 03:17:52;;;;;;;410.02;368.85;;;;;;;4.87;100.00;99540.19;7387840;19;20018;-51
2022/11/13 03:20:52;;;;;;;419.33;376.45;;;;;;;4.84;100.00;99528.06;7386770;19;20078;-51
2022/11/13 03:23:46;;;;;;;433.45;389.52;;;;;;;4.81;100.00;99540.28;7381827;19;20007;-54
2022/11/13 03:26:39;;;;;;;428.77;385.75;;;;;;;4.86;100.00;99544.53;7389032;19;20110;-50
2022/11/13 03:29:34;;;;;;;;;;;;;;;4.93;100.00;99547.88;7389013;19;20010;-50
2022/11/13 03:32:25;;;;;;;450.00;404.67;;;;;;;4.77;100.00;99538.59;7379851;19;20311;-50
2022/11/13 03:35:21;;;;;;;435.33;392.15;;;;;;;4.82;100.00;99539.38;7387572;19;20015;-54
2022/11/13 03:38:15;;;;;;;430.30;387.55;;;;;;;4.82;100.00;99539.38;7387158;19;20011;-50
2022/11/13 03:41:13;;;;;;;425.65;382.50;;;;;;;4.78;100.00;99542.91;7389056;19;21063;-52
2022/11/13 03:44:08;;;;;;;446.95;402.20;;;;;;;4.74;100.00;99536.03;7384034;19;20011;-52
2022/11/13 03:47:00;;;;;;;428.08;385.25;;;;;;;5.02;100.00;99542.53;7389639;19;20100;-50
2022/11/13 03:49:52;;;;;;;422.65;380.33;;;;;;;4.84;100.00;99535.00;7389706;19;20354;-51
2022/11/13 03:52:47;;;;;;;432.13;388.27;;;;;;;5.23;100.00;99536.97;7384184;19;20021;-48
2022/11/13 03:55:40;;;;;;;436.45;393.35;;;;;;;4.89;100.00;99541.00;7387429;19;20014;-49
2022/11/13 03:58:32;;;;;;;513.33;458.63;;;;;;;4.81;100.00;99533.31;7387353;19;20022;-51
2022/11/13 04:01:23;;;;;;;657.08;561.58;;;;;;;4.76;100.00;99545.56;7387818;19;20093;-50
2022/11/13 04:04:17;;;;;;;630.70;541.30;;;;;;;4.76;100.00;99540.34;7384730;19;20029;-60
2022/11/13 04:07:09;;;;;;;586.97;511.65;;;;;;;4.82;100.00;99544.59;7389373;19;20010;-52
2022/11/13 04:10:04;;;;;;;592.28;516.42;;;;;;;4.77;100.00;99543.81;7388664;19;20023;-50
2022/11/13 04:12:56;;;;;;;448.60;403.88;;;;;;;4.77;100.00;99538.59;7382972;19;20014;-50
2022/11/13 04:15:49;;;;;;;437.92;394.35;;;;;;;4.80;100.00;99536.78;7388444;19;20039;-50
2022/11/13 04:18:41;;;;;;;430.45;386.85;;;;;;;4.79;100.00;99540.28;7386557;19;20346;-48
2022/11/13 04:21:33;;;;;;;455.60;410.25;;;;;;;4.81;100.00;99545.50;7383069;19;20019;-50
2022/11/13 04:24:26;;;;;;;427.90;384.40;;;;;;;4.95;100.00;99546.13;7387313;19;20014;-50
2022/11/13 04:27:21;;;;;;;437.35;393.98;;;;;;;4.86;100.00;99547.13;7388615;19;20010;-49
2022/11/13 04:30:15;;;;;;;429.52;386.02;;;;;;;4.76;100.00;99549.91;7383373;19;20007;-51
2022/11/13 04:33:07;;;;;;;434.98;392.17;;;;;;;4.82;100.00;99549.81;7386084;19;20014;-61
2022/11/13 04:36:02;;;;;;;432.52;389.58;;;;;;;4.90;100.00;99547.97;7387811;19;20006;-50
2022/11/13 04:38:54;;;;;;;440.33;397.08;;;;;;;4.86;100.00;99543.66;7386540;19;20114;-50
2022/11/13 04:44:58;;;;;;;440.95;397.08;;;;;;;4.87;100.00;99545.41;7384505;19;20359;-60
2022/11/13 04:47:50;;;;;;;429.67;386.38;;;;;;;4.96;100.00;99545.22;7387747;19;20007;-49
2022/11/13 04:50:42;;;;;;;436.10;392.80;;;;;;;4.90;100.00;99543.59;7387846;19;20079;-53
2022/11/13 04:53:35;;;;;;;447.10;403.00;;;;;;;5.08;100.00;99537.19;7381079;19;20018;-50
2022/11/13 04:56:30;;;;;;;439.77;396.33;;;;;;;4.91;100.00;99539.25;7386190;19;20543;-54
2022/11/13 04:59:23;;;;;;;441.38;397.98;;;;;;;4.94;100.00;99531.38;7388209;19;20006;-51
2022/11/13 05:02:21;;;;;;;458.08;412.80;;;;;;;4.86;100.00;99536.72;7384188;19;20017;-51
2022/11/13 05:05:15;;;;;;;441.45;398.05;;;;;;;4.79;100.00;99534.25;7382215;19;20015;-59
2022/11/13 05:08:07;;;;;;;437.30;394.45;;;;;;;5.12;100.00;99533.69;7383317;19;20021;-50
2022/11/13 05:10:59;;;;;;;437.63;394.92;;;;;;;4.91;100.00;99536.63;7386353;19;20019;-49
2022/11/13 05:13:52;;;;;;;445.73;401.50;;;;;;;4.77;100.00;99541.22;7381080;19;20018;-52
2022/11/13 05:16:45;;;;;;;432.08;389.20;;;;;;;5.11;100.00;99537.16;7385622;19;20014;-52
2022/11/13 05:19:39;;;;;;;451.67;407.52;;;;;;;4.74;100.00;99536.03;7386391;19;20025;-51
2022/11/13 05:22:32;;;;;;;482.83;435.65;;;;;;;4.65;100.00;99538.81;7378870;19;20013;-50
2022/11/13 05:25:24;;;;;;;462.05;416.58;;;;;;;5.15;100.00;99551.84;7385185;19;20074;-49
2022/11/13 05:28:16;;;;;;;473.25;427.17;;;;;;;5.05;100.00;99537.28;7382562;19;20022;-51
2022/11/13 05:31:11;;;;;;;484.83;437.65;;;;;;;4.90;100.00;99545.34;7383218;19;20014;-52
2022/11/13 05:34:03;;;;;;;462.23;416.70;;;;;;;5.00;100.00;99539.09;7384218;19;20019;-56
2022/11/13 05:36:59;;;;;;;466.65;420.50;;;;;;;4.93;100.00;99542.66;7386125;19;20015;-52
2022/11/13 05:39:51;;;;;;;463.85;418.75;;;;;;;5.07;100.00;99545.91;7386420;19;20021;-50
2022/11/13 05:42:44;;;;;;;460.55;415.10;;;;;;;5.01;100.00;99538.22;7378995;19;20771;-60
2022/11/13 05:45:36;;;;;;;454.35;409.70;;;;;;;4.95;100.00;99535.69;7383459;19;20014;-53
2022/11/13 05:48:28;;;;;;;463.25;417.80;;;;;;;4.91;100.00;99539.25;7384667;19;20011;-50
2022/11/13 05:51:23;;;;;;;479.52;431.98;;;;;;;4.86;100.00;99530.63;7378584;19;20018;-51
2022/11/13 05:54:20;;;;;;;453.42;409.13;;;;;;;5.09;100.00;99534.56;7382906;19;20022;-53
2022/11/13 05:57:13;;;;;;;442.45;398.75;;;;;;;4.99;100.00;99539.97;7385190;19;20014;-49
2022/11/13 06:00:06;;;;;;;444.25;399.83;;;;;;;5.03;100.00;99533.81;7383607;19;20014;-51
2022/11/13 06:02:57;;;;;;;435.92;392.42;;;;;;;5.07;100.00;99534.66;7383306;19;20074;-53
2022/11/13 06:05:50;;;;;;;495.70;448.17;;;;;;;5.04;100.00;99540.75;7381997;19;20006;-50
2022/11/13 06:08:42;;;;;;;487.17;439.67;;;;;;;5.00;100.00;99541.69;7384224;19;20017;-51
2022/11/13 06:11:38;;;;;;;497.70;449.50;;;;;;;5.18;100.00;99538.75;7380908;19;20086;-60
2022/11/13 06:14:30;;;;;;;482.95;435.65;;;;;;;5.27;100.00;99540.34;7386303;19;20328;-52
2022/11/13 06:17:22;;;;;;;474.00;427.83;;;;;;;5.20;100.00;99541.34;7385885;19;20016;-50
2022/11/13 06:20:15;;;;;;;466.17;419.67;;;;;;;5.39;100.00;99534.91;7380156;19;20018;-52
2022/11/13 06:23:08;;;;;;;459.13;414.13;;;;;;;4.95;100.00;99525.28;7391300;19;20558;-51
2022/11/13 06:26:06;;;;;;;458.33;412.75;;;;;;;5.13;100.00;99525.81;7388831;19;20002;-52
2022/11/13 06:29:02;;;;;;;476.48;429.75;;;;;;;5.33;100.00;99525.44;7386001;19;20562;-51
2022/11/13 06:31:54;;;;;;;484.02;436.08;;;;;;;5.44;100.00;99522.66;7386849;19;20007;-60
2022/11/13 06:34:48;;;;;;;479.25;432.48;;;;;;;5.34;100.00;99531.53;7382862;19;20470;-53
2022/11/13 06:37:42;;;;;;;467.10;420.55;;;;;;;5.45;100.00;99533.03;7387123;19;20015;-58
2022/11/13 06:40:38;;;;;;;485.50;437.08;;;;;;;5.66;100.00;99519.59;7384633;19;20014;-52
2022/11/13 06:43:31;;;;;;;478.70;431.05;;;;;;;5.89;100.00;99516.53;7387123;19;20017;-51
2022/11/13 06:46:27;;;;;;;470.95;424.00;;;;;;;5.16;100.00;99522.31;7385181;19;20558;-53
2022/11/13 06:49:20;;;;;;;483.50;435.88;;;;;;;5.30;100.00;99522.06;7386559;19;20014;-49
2022/11/13 06:52:12;;;;;;;476.17;428.38;;;;;;;5.37;100.00;99528.88;7379246;19;20078;-60
2022/11/13 06:55:05;;;;;;;468.55;421.38;;;;;;;5.40;100.00;99532.28;7384148;19;20011;-52
2022/11/13 06:57:58;;;;;;;484.23;436.02;;;;;;;5.23;100.00;99531.75;7388925;19;20801;-53
2022/11/13 07:00:50;;;;;;;495.15;445.73;;;;;;;5.18;100.00;99527.50;7384441;19;20027;-49
2022/11/13 07:03:45;;;;;;;472.85;425.45;;;;;;;5.21;100.00;99535.25;7388826;19;20014;-54
2022/11/13 07:06:38;;;;;;;456.50;410.15;;;;;;;5.30;100.00;99528.09;7377928;19;20006;-51
2022/11/13 07:09:31;;;;;;;453.63;407.23;;;;;;;5.60;100.00;99524.94;7382151;19;20029;-49
2022/11/13 07:12:25;;;;;;;444.30;399.33;;;;;;;5.46;100.00;99534.78;7386625;19;20022;-51
2022/11/13 07:15:18;;;;;;;460.20;414.70;;;;;;;5.42;100.00;99532.25;7387500;19;20030;-49
2022/11/13 07:18:12;;;;;;;448.05;402.60;;;;;;;5.17;100.00;99526.63;7387232;19;20585;-52
2022/11/13 07:21:11;;;;;;;457.35;411.00;;;;;;;5.32;100.00;99523.75;7383159;19;20042;-60
2022/11/13 07:24:03;;;;;;;465.55;419.67;;;;;;;5.52;100.00;99523.38;7385285;19;20014;-53
2022/11/13 07:26:56;;;;;;;467.63;421.70;;;;;;;5.34;100.00;99523.72;7384226;19;20010;-51
2022/11/13 07:29:48;;;;;;;466.85;419.58;;;;;;;5.41;100.00;99525.31;7381919;19;20497;-57
2022/11/13 07:32:40;;;;;;;473.05;427.20;;;;;;;5.67;100.00;99525.69;7388226;19;20014;-52
2022/11/13 07:35:32;;;;;;;456.85;411.00;;;;;;;5.53;100.00;99520.72;7388082;19;20011;-56
2022/11/13 07:38:27;;;;;;;474.70;427.40;;;;;;;5.43;100.00;99527.00;7383377;19;20055;-53
2022/11/13 07:41:20;;;;;;;472.40;425.65;;;;;;;5.60;100.00;99527.56;7386143;19;20014;-61
2022/11/13 07:44:14;;;;;;;469.50;423.33;;;;;;;5.65;100.00;99523.09;7386449;19;20462;-54
2022/11/13 07:47:07;;;;;;;465.90;419.45;;;;;;;5.51;100.00;99527.72;7388640;19;20010;-50
2022/11/13 07:49:59;;;;;;;474.13;427.27;;;;;;;5.56;100.00;99525.03;7382095;19;20078;-51
2022/11/13 07:52:51;;;;;;;465.00;419.27;;;;;;;5.72;100.00;99522.09;7388761;19;20010;-52
2022/11/13 07:55:47;;;;;;;467.58;421.92;;;;;;;5.59;100.00;99525.81;7387324;19;20021;-49
2022/11/13 07:58:39;;;;;;;;;;;;;;;5.42;100.00;99527.91;7381502;19;20014;-50
2022/11/13 08:01:32;;;;;;;481.30;435.75;;;;;;;5.59;100.00;99530.19;7385461;19;19915;-49
2022/11/13 08:04:25;;;;;;;480.98;434.98;;;;;;;5.63;100.00;99522.25;7388738;19;20412;-51
2022/11/13 08:07:18;;;;;;;499.90;451.73;;;;;;;5.72;100.00;99526.44;7378765;19;20015;-49
2022/11/13 08:10:12;;;;;;;470.42;423.95;;;;;;;5.50;100.00;99535.56;7384530;19;20025;-59
2022/11/13 08:13:10;;;;;;;483.20;435.90;;;;;;;5.68;100.00;99536.09;7381075;19;20007;-50
2022/11/13 08:16:06;;;;;;;491.00;444.65;;;;;;;5.78;100.00;99542.00;7381560;19;20450;-49
2022/11/13 08:18:58;;;;;;;481.58;433.75;;;;;;;5.72;100.00;99536.88;7378909;19;20010;-49
2022/11/13 08:21:49;;;;;;;500.42;454.38;;;;;;;5.93;100.00;99544.28;7385435;19;20006;-49
2022/11/13 08:24:42;;;;;;;491.63;445.20;;;;;;;5.85;100.00;99546.19;7385884;19;20031;-49
2022/11/13 08:27:34;;;;;;;498.00;450.40;;;;;;;6.04;100.00;99547.53;7380602;19;20101;-49
2022/11/13 08:30:31;;;;;;;490.02;444.25;;;;;;;5.81;100.00;99553.22;7387113;19;20486;-51
2022/11/13 08:33:23;;;;;;;478.60;433.25;;;;;;;5.83;100.00;99548.84;7384374;19;20027;-50
2022/11/13 08:36:17;;;;;;;483.30;437.58;;;;;;;5.72;100.00;99550.81;7386680;19;21017;-49
2022/11/13 08:39:11;;;;;;;479.48;433.10;;;;;;;5.70;100.00;99549.94;7381248;19;20016;-50
2022/11/13 08:42:03;;;;;;;478.60;431.90;;;;;;;5.78;100.00;99540.22;7386060;19;20021;-50
2022/11/13 08:44:56;;;;;;;473.85;427.67;;;;;;;5.70;100.00;99544.72;7384650;19;21255;-49
2022/11/13 08:47:54;;;;;;;483.42;436.67;;;;;;;5.66;100.00;99545.69;7375742;19;20474;-51
2022/11/13 08:50:48;;;;;;;480.38;435.20;;;;;;;5.64;100.00;99551.84;7383977;19;20013;-53
2022/11/13 08:53:40;;;;;;;477.23;431.92;;;;;;;5.66;100.00;99556.13;7385098;19;20014;-49
2022/11/13 08:56:33;;;;;;;470.30;425.27;;;;;;;5.53;100.00;99552.03;7385768;19;20051;-49
2022/11/13 08:59:28;;;;;;;485.88;439.10;;;;;;;5.60;100.00;99545.81;7380527;19;20018;-60
2022/11/13 09:02:21;;;;;;;491.77;445.65;;;;;;;5.76;100.00;99555.06;7384995;19;20014;-49
2022/11/13 09:05:19;;;;;;;473.52;428.35;;;;;;;5.74;100.00;99553.38;7382773;19;20097;-48
2022/11/13 09:08:12;;;;;;;487.10;438.85;;;;;;;5.71;100.00;99556.91;7380448;19;20015;-52
2022/11/13 09:11:09;;;;;;;470.38;424.85;;;;;;;5.87;100.00;99557.44;7385481;19;20018;-53
2022/11/13 09:14:01;;;;;;;491.73;445.25;;;;;;;5.70;100.00;99560.41;7384870;19;20007;-50
2022/11/13 09:16:54;;;;;;;484.23;437.88;;;;;;;5.77;100.00;99555.94;7384680;19;20014;-49
2022/11/13 09:19:46;;;;;;;473.95;427.58;;;;;;;5.91;100.00;99543.44;7378352;19;20018;-58
2022/11/13 09:22:42;;;;;;;473.60;427.80;;;;;;;5.84;100.00;99553.16;7383870;19;20331;-49
2022/11/13 09:25:36;;;;;;;469.15;423.75;;;;;;;5.72;100.00;99555.16;7381916;19;20026;-54
2022/11/13 09:28:28;;;;;;;483.50;436.20;;;;;;;5.88;100.00;99557.44;7376237;19;20055;-52
2022/11/13 09:31:21;;;;;;;470.40;424.80;;;;;;;5.93;100.00;99557.34;7374697;19;20014;-49
2022/11/13 09:34:17;;;;;;;489.95;443.20;;;;;;;5.79;100.00;99549.78;7376283;19;20018;-53
2022/11/13 09:37:09;;;;;;;484.27;436.77;;;;;;;5.77;100.00;99555.94;7383904;19;20090;-50
2022/11/13 09:40:07;;;;;;;493.02;444.92;;;;;;;5.81;100.00;99547.16;7377719;19;20036;-53
2022/11/13 09:42:59;;;;;;;461.38;416.58;;;;;;;5.79;100.00;99539.34;7382861;19;20085;-50
2022/11/13 09:45:51;;;;;;;445.65;402.45;;;;;;;5.76;100.00;99543.75;7381418;19;20040;-49
2022/11/13 09:48:47;;;;;;;466.15;421.23;;;;;;;5.83;100.00;99542.75;7376907;19;20021;-48
2022/11/13 09:51:42;;;;;;;459.98;415.92;;;;;;;5.81;100.00;99550.59;7383771;19;20022;-50
2022/11/13 09:54:37;;;;;;;469.05;423.23;;;;;;;6.15;100.00;99538.56;7383117;19;20015;-50
2022/11/13 09:57:43;;;;;;;466.77;421.05;;;;;;;6.40;100.00;99538.94;7390871;19;20022;-48
2022/11/13 10:00:40;;;;;;;471.50;423.67;;;;;;;6.61;100.00;99534.06;7387014;19;20465;-50
2022/11/13 10:03:42;;;;;;;463.13;416.35;;;;;;;6.96;100.00;99533.22;7379620;19;20011;-54
2022/11/13 10:06:45;;;;;;;451.67;405.55;;;;;;;6.84;100.00;99528.31;7386405;19;20018;-50
2022/11/13 10:09:45;;;;;;;456.50;410.27;;;;;;;6.61;100.00;99534.06;7384298;19;20478;-49
2022/11/13 10:12:40;;;;;;;467.67;421.00;;;;;;;6.75;100.00;99521.53;7388479;19;20049;-49
2022/11/13 10:15:33;;;;;;;487.80;439.73;;;;;;;6.77;100.00;99522.34;7382197;19;20022;-49
2022/11/13 10:18:32;;;;;;;465.33;419.20;;;;;;;6.71;100.00;99519.91;7391516;19;20028;-60
2022/11/13 10:21:37;;;;;;;459.83;414.20;;;;;;;6.75;100.00;99521.53;7392799;19;20021;-49
2022/11/13 10:24:33;;;;;;;469.08;422.85;;;;;;;6.46;100.00;99520.50;7391862;19;20015;-49
2022/11/13 10:27:26;;;;;;;472.13;424.92;;;;;;;6.34;100.00;99508.59;7390389;19;20529;-50
2022/11/13 10:30:25;;;;;;;473.67;426.58;;;;;;;6.55;100.00;99502.84;7388437;19;20015;-60
2022/11/13 10:33:24;;;;;;;477.45;430.40;;;;;;;6.76;100.00;99496.25;7390955;19;20015;-52
2022/11/13 10:36:26;;;;;;;456.98;411.10;;;;;;;6.86;100.00;99498.63;7391622;19;20508;-53
2022/11/13 10:39:18;;;;;;;447.00;401.15;;;;;;;7.07;100.00;99498.03;7392793;19;20073;-50
2022/11/13 10:42:10;;;;;;;479.90;431.30;;;;;;;6.96;100.00;99500.06;7387447;19;20078;-49
2022/11/13 10:45:04;;;;;;;463.33;417.15;;;;;;;6.66;100.00;99495.59;7389285;19;20015;-50
2022/11/13 10:48:01;;;;;;;466.92;421.05;;;;;;;6.93;100.00;99497.56;7390181;19;20100;-48
2022/11/13 10:51:01;;;;;;;478.52;431.77;;;;;;;7.12;100.00;99493.56;7389622;19;20011;-50
2022/11/13 10:53:56;;;;;;;472.50;425.15;;;;;;;7.03;100.00;99493.78;7386877;19;20019;-51
2022/11/13 10:57:01;;;;;;;469.17;423.23;;;;;;;7.34;100.00;99494.72;7393428;19;20022;-50
2022/11/13 10:59:55;;;;;;;476.38;430.23;;;;;;;7.20;100.00;99483.75;7391255;19;20023;-50
2022/11/13 11:02:55;;;;;;;462.23;415.77;;;;;;;6.95;100.00;99497.53;7391207;19;20016;-50
2022/11/13 11:05:58;;;;;;;482.83;434.52;;;;;;;6.71;100.00;99488.53;7385599;19;20010;-49
2022/11/13 11:08:50;;;;;;;466.98;418.95;;;;;;;6.74;100.00;99483.25;7379311;19;20023;-53
2022/11/13 11:15:07;;;;;;;438.98;393.23;;;;;;;6.72;100.00;99471.94;7383733;19;20480;-53
2022/11/13 11:18:06;;;;;;;449.48;402.35;;;;;;;7.01;100.00;99472.06;7383650;19;20350;-52
2022/11/13 11:21:04;;;;;;;447.33;399.85;;;;;;;7.10;100.00;99476.22;7388720;19;20014;-51
2022/11/13 11:24:03;;;;;;;453.30;405.55;;;;;;;6.89;100.00;99466.28;7385579;19;20015;-53
2022/11/13 11:27:07;;;;;;;461.15;414.10;;;;;;;6.82;100.00;99455.13;7383211;19;20022;-60
2022/11/13 11:30:07;;;;;;;451.52;405.50;;;;;;;6.89;100.00;99455.84;7388040;19;20018;-50
2022/11/13 11:33:18;;;;;;;456.77;410.40;;;;;;;7.04;100.00;99456.31;7389851;19;20017;-50
2022/11/13 11:36:24;;;;;;;439.10;393.20;;;;;;;7.02;100.00;99447.63;7389634;19;20015;-50
2022/11/13 11:39:33;;;;;;;434.70;389.25;;;;;;;6.91;100.00;99454.88;7390684;19;20462;-51
2022/11/13 11:42:35;;;;;;;430.52;385.40;;;;;;;6.80;100.00;99445.59;7386529;19;20035;-56
2022/11/13 11:45:32;;;;;;;447.60;401.25;;;;;;;6.90;100.00;99445.34;7387964;19;20029;-51
2022/11/13 11:48:27;;;;;;;451.25;404.35;;;;;;;6.89;100.00;99434.91;7384080;19;20028;-51
2022/11/13 11:51:30;;;;;;;443.77;397.20;;;;;;;6.91;100.00;99427.88;7390345;19;20326;-50
2022/11/13 11:54:35;;;;;;;441.50;395.05;;;;;;;6.76;100.00;99428.28;7389939;19;20442;-54
2022/11/13 11:57:41;;;;;;;431.60;385.35;;;;;;;6.65;100.00;99419.84;7389033;19;20030;-51
2022/11/13 12:00:47;;;;;;;459.92;412.83;;;;;;;6.75;100.00;99418.72;7380590;19;20007;-51
2022/11/13 12:04:07;;;;;;;466.55;419.27;;;;;;;6.64;100.00;99411.16;7384543;19;20324;-50
2022/11/13 12:07:22;;;;;;;460.33;413.48;;;;;;;6.79;100.00;99402.91;7382804;19;20011;-49
2022/11/13 12:10:28;;;;;;;446.83;400.67;;;;;;;6.83;100.00;99403.69;7384524;19;20010;-50
2022/11/13 12:13:32;;;;;;;447.05;400.63;;;;;;;6.85;100.00;99397.50;7384859;19;20027;-49
2022/11/13 12:16:32;;;;;;;457.45;409.75;;;;;;;6.82;100.00;99400.22;7384528;19;20692;-50
2022/11/13 12:19:37;;;;;;;459.85;412.83;;;;;;;6.88;100.00;99396.59;7378868;19;20516;-51
2022/11/13 12:22:45;;;;;;;444.10;398.77;;;;;;;6.85;100.00;99396.66;7384893;19;20006;-60
2022/11/13 12:25:47;;;;;;;441.23;395.48;;;;;;;6.72;100.00;99392.66;7384612;19;20474;-49
2022/11/13 12:28:51;;;;;;;450.23;404.10;;;;;;;6.69;100.00;99385.75;7385015;19;20006;-51
2022/11/13 12:31:55;;;;;;;434.60;390.10;;;;;;;6.68;100.00;99380.56;7387133;19;20006;-52
2022/11/13 12:34:53;;;;;;;440.77;395.83;;;;;;;6.77;100.00;99388.19;7384740;19;20599;-53
2022/11/13 12:37:58;;;;;;;453.15;407.33;;;;;;;6.71;100.00;99383.97;7386730;19;20646;-53
2022/11/13 12:40:58;;;;;;;458.58;412.23;;;;;;;6.77;100.00;99383.78;7378239;19;20493;-50
2022/11/13 12:44:05;;;;;;;463.83;418.00;;;;;;;6.72;100.00;99374.34;7381455;19;20022;-51
2022/11/13 12:46:58;;;;;;;449.55;404.42;;;;;;;6.63;100.00;99372.84;7381294;19;20414;-51
2022/11/13 12:49:51;;;;;;;452.60;407.00;;;;;;;6.56;100.00;99378.28;7387491;19;20016;-54
2022/11/13 12:52:42;;;;;;;470.00;424.23;;;;;;;6.82;100.00;99374.09;7381393;19;20474;-54
2022/11/13 12:55:41;;;;;;;448.58;403.30;;;;;;;6.87;100.00;99379.16;7382280;19;20011;-54
2022/11/13 12:58:37;;;;;;;447.73;402.27;;;;;;;6.56;100.00;99373.91;7378738;19;20465;-53
2022/11/13 13:01:32;;;;;;;457.50;411.90;;;;;;;6.48;100.00;99368.00;7382616;19;20018;-53
2022/11/13 13:04:50;;;;;;;469.65;422.48;;;;;;;6.51;100.00;99369.69;7379857;19;20869;-49
2022/11/13 13:08:06;;;;;;;462.58;415.45;;;;;;;6.72;100.00;99363.91;7379941;19;20002;-52
2022/11/13 13:11:15;;;;;;;469.75;423.08;;;;;;;6.68;100.00;99364.88;7382787;19;20014;-49
2022/11/13 13:14:36;;;;;;;473.23;425.90;;;;;;;6.55;100.00;99364.34;7374381;19;20069;-49